createdAt,value
2022-08-16T00:00:38.764Z,20.65
2022-08-16T00:01:34.084Z,20.72
2022-08-16T00:02:32.128Z,20.72
2022-08-16T00:03:31.955Z,20.60
2022-08-16T00:04:31.881Z,20.65
2022-08-16T00:05:34.986Z,20.66
2022-08-16T00:06:31.733Z,20.63
2022-08-16T00:07:31.659Z,20.63
2022-08-16T00:08:37.057Z,20.62
2022-08-16T00:09:31.510Z,20.55
2022-08-16T00:10:31.434Z,20.60
2022-08-16T00:11:31.363Z,20.59
2022-08-16T00:12:31.285Z,20.51
2022-08-16T00:13:31.210Z,20.58
2022-08-16T00:14:31.134Z,20.48
2022-08-16T00:15:50.887Z,20.48
2022-08-16T00:17:05.887Z,20.55
2022-08-16T00:17:56.732Z,20.48
2022-08-16T00:18:31.603Z,20.44
2022-08-16T00:19:41.473Z,20.31
2022-08-16T00:20:30.684Z,20.37
2022-08-16T00:21:30.610Z,20.37
2022-08-16T00:22:30.539Z,20.32
2022-08-16T00:23:40.247Z,20.36
2022-08-16T00:24:32.486Z,20.24
2022-08-16T00:26:33.880Z,20.25
2022-08-16T00:26:35.797Z,20.31
2022-08-16T00:27:30.783Z,20.39
2022-08-16T00:28:30.088Z,20.34
2022-08-16T00:29:30.271Z,20.36
2022-08-16T00:30:29.938Z,20.37
2022-08-16T00:31:58.728Z,20.31
2022-08-16T00:32:32.760Z,20.37
2022-08-16T00:33:29.714Z,20.37
2022-08-16T00:34:44.373Z,20.39
2022-08-16T00:35:29.562Z,20.39
2022-08-16T00:36:29.492Z,20.40
2022-08-16T00:37:57.782Z,20.32
2022-08-16T00:38:41.111Z,20.32
2022-08-16T00:39:29.299Z,20.25
2022-08-16T00:40:34.940Z,20.32
2022-08-16T00:41:29.119Z,20.29
2022-08-16T00:42:29.513Z,20.40
2022-08-16T00:43:40.744Z,20.36
2022-08-16T00:44:31.914Z,20.32
2022-08-16T00:45:28.820Z,20.22
2022-08-16T00:46:34.695Z,20.28
2022-08-16T00:47:30.030Z,20.39
2022-08-16T00:48:31.746Z,20.34
2022-08-16T00:49:28.525Z,20.40
2022-08-16T00:50:36.012Z,20.36
2022-08-16T00:51:29.437Z,20.32
2022-08-16T00:52:30.565Z,20.32
2022-08-16T00:53:30.799Z,20.29
2022-08-16T00:54:28.151Z,20.39
2022-08-16T00:55:28.075Z,20.31
2022-08-16T00:56:58.135Z,20.29
2022-08-16T00:57:58.926Z,20.25
2022-08-16T00:58:34.299Z,20.26
2022-08-16T00:59:27.773Z,20.22
2022-08-16T01:00:27.718Z,20.34
2022-08-16T01:01:27.669Z,20.24
2022-08-16T01:02:31.439Z,20.26
2022-08-16T01:03:30.163Z,20.24
2022-08-16T01:04:29.968Z,20.36
2022-08-16T01:05:27.336Z,20.22
2022-08-16T01:06:40.887Z,20.26
2022-08-16T01:07:27.176Z,20.25
2022-08-16T01:08:36.206Z,20.25
2022-08-16T01:09:27.022Z,20.21
2022-08-16T01:10:32.181Z,20.19
2022-08-16T01:11:26.872Z,20.31
2022-08-16T01:12:26.964Z,20.31
2022-08-16T01:13:26.929Z,20.24
2022-08-16T01:14:29.863Z,20.22
2022-08-16T01:15:26.571Z,20.22
2022-08-16T01:16:26.498Z,20.18
2022-08-16T01:17:26.426Z,20.24
2022-08-16T01:18:40.821Z,20.11
2022-08-16T01:19:26.274Z,20.26
2022-08-16T01:20:30.446Z,20.10
2022-08-16T01:21:33.676Z,20.21
2022-08-16T01:22:47.568Z,20.21
2022-08-16T01:23:25.977Z,20.16
2022-08-16T01:24:51.836Z,20.13
2022-08-16T01:25:33.913Z,20.14
2022-08-16T01:26:33.702Z,20.11
2022-08-16T01:27:25.776Z,20.13
2022-08-16T01:28:25.603Z,20.09
2022-08-16T01:29:55.983Z,20.14
2022-08-16T01:30:26.292Z,20.16
2022-08-16T01:31:31.043Z,20.09
2022-08-16T01:32:31.421Z,20.11
2022-08-16T01:33:25.229Z,20.09
2022-08-16T01:34:26.597Z,20.14
2022-08-16T01:35:25.080Z,20.10
2022-08-16T01:36:26.652Z,20.14
2022-08-16T01:37:24.929Z,20.16
2022-08-16T01:38:25.579Z,20.03
2022-08-16T01:39:24.819Z,20.09
2022-08-16T01:40:24.706Z,20.10
2022-08-16T01:41:24.623Z,20.09
2022-08-16T01:42:24.553Z,20.02
2022-08-16T01:43:24.482Z,20.06
2022-08-16T01:44:24.405Z,20.04
2022-08-16T01:45:24.329Z,20.07
2022-08-16T01:46:29.468Z,20.02
2022-08-16T01:47:24.185Z,20.04
2022-08-16T01:48:24.110Z,20.07
2022-08-16T01:49:24.029Z,20.00
2022-08-16T01:50:42.657Z,19.95
2022-08-16T01:51:23.888Z,19.86
2022-08-16T01:52:28.295Z,19.99
2022-08-16T01:53:23.735Z,19.96
2022-08-16T01:54:31.070Z,19.92
2022-08-16T01:55:23.580Z,19.92
2022-08-16T01:56:24.790Z,19.91
2022-08-16T01:57:23.427Z,19.91
2022-08-16T01:58:23.353Z,19.92
2022-08-16T01:59:23.283Z,19.94
2022-08-16T02:00:29.268Z,19.99
2022-08-16T02:01:23.167Z,19.95
2022-08-16T02:02:27.192Z,19.91
2022-08-16T02:03:24.309Z,19.95
2022-08-16T02:04:48.710Z,19.92
2022-08-16T02:05:23.592Z,19.94
2022-08-16T02:06:33.840Z,19.92
2022-08-16T02:07:23.442Z,19.92
2022-08-16T02:08:33.420Z,19.92
2022-08-16T02:09:22.529Z,19.91
2022-08-16T02:10:22.454Z,20.02
2022-08-16T02:11:22.383Z,19.91
2022-08-16T02:12:50.570Z,19.89
2022-08-16T02:13:22.229Z,19.94
2022-08-16T02:14:22.156Z,19.95
2022-08-16T02:15:25.324Z,19.91
2022-08-16T02:16:22.008Z,20.00
2022-08-16T02:17:21.934Z,19.92
2022-08-16T02:18:21.864Z,19.89
2022-08-16T02:19:21.781Z,19.91
2022-08-16T02:20:25.959Z,19.95
2022-08-16T02:21:31.718Z,19.92
2022-08-16T02:22:33.460Z,19.94
2022-08-16T02:23:21.483Z,19.92
2022-08-16T02:24:32.091Z,19.94
2022-08-16T02:25:21.330Z,19.94
2022-08-16T02:26:21.258Z,19.89
2022-08-16T02:27:21.182Z,19.91
2022-08-16T02:28:21.105Z,19.92
2022-08-16T02:29:21.028Z,19.94
2022-08-16T02:30:37.171Z,19.92
2022-08-16T02:31:20.879Z,19.88
2022-08-16T02:32:50.940Z,19.89
2022-08-16T02:33:20.727Z,19.94
2022-08-16T02:34:20.659Z,19.96
2022-08-16T02:35:22.902Z,19.89
2022-08-16T02:36:49.645Z,19.88
2022-08-16T02:37:20.890Z,19.88
2022-08-16T02:38:20.354Z,19.85
2022-08-16T02:39:20.282Z,19.76
2022-08-16T02:40:20.207Z,19.70
2022-08-16T02:41:20.133Z,19.85
2022-08-16T02:42:20.053Z,19.74
2022-08-16T02:43:19.979Z,19.76
2022-08-16T02:44:19.907Z,19.81
2022-08-16T02:45:19.829Z,19.85
2022-08-16T02:46:19.758Z,19.81
2022-08-16T02:47:25.414Z,19.85
2022-08-16T02:48:29.050Z,19.84
2022-08-16T02:49:20.371Z,19.74
2022-08-16T02:50:54.663Z,19.74
2022-08-16T02:51:19.378Z,19.86
2022-08-16T02:52:24.995Z,19.82
2022-08-16T02:53:23.633Z,19.81
2022-08-16T02:54:19.158Z,19.79
2022-08-16T02:55:19.079Z,19.74
2022-08-16T02:56:19.004Z,19.79
2022-08-16T02:57:18.938Z,19.81
2022-08-16T02:58:18.860Z,19.82
2022-08-16T02:59:18.781Z,19.69
2022-08-16T03:00:34.677Z,19.70
2022-08-16T03:01:24.701Z,19.67
2022-08-16T03:02:18.625Z,19.67
2022-08-16T03:03:18.481Z,19.63
2022-08-16T03:04:41.197Z,19.64
2022-08-16T03:05:18.330Z,19.58
2022-08-16T03:06:42.067Z,19.67
2022-08-16T03:07:18.176Z,19.62
2022-08-16T03:08:51.994Z,19.64
2022-08-16T03:09:18.029Z,19.59
2022-08-16T03:10:17.950Z,19.58
2022-08-16T03:11:21.713Z,19.59
2022-08-16T03:12:18.008Z,19.63
2022-08-16T03:13:17.735Z,19.62
2022-08-16T03:14:21.342Z,19.62
2022-08-16T03:15:17.576Z,19.59
2022-08-16T03:16:38.060Z,19.58
2022-08-16T03:17:17.432Z,19.56
2022-08-16T03:18:34.741Z,19.66
2022-08-16T03:19:17.278Z,19.63
2022-08-16T03:20:18.253Z,19.63
2022-08-16T03:21:18.576Z,19.58
2022-08-16T03:22:19.106Z,19.62
2022-08-16T03:23:16.977Z,19.54
2022-08-16T03:24:28.154Z,19.62
2022-08-16T03:25:16.825Z,19.58
2022-08-16T03:26:16.753Z,19.58
2022-08-16T03:27:16.680Z,19.63
2022-08-16T03:28:17.151Z,19.66
2022-08-16T03:29:16.529Z,19.58
2022-08-16T03:30:17.973Z,19.49
2022-08-16T03:31:16.375Z,19.58
2022-08-16T03:32:16.309Z,19.52
2022-08-16T03:33:16.229Z,19.58
2022-08-16T03:34:16.153Z,19.49
2022-08-16T03:35:17.572Z,19.54
2022-08-16T03:36:19.997Z,19.49
2022-08-16T03:37:15.924Z,19.41
2022-08-16T03:38:32.956Z,19.51
2022-08-16T03:39:20.347Z,19.52
2022-08-16T03:40:32.816Z,19.47
2022-08-16T03:41:25.271Z,19.39
2022-08-16T03:42:20.195Z,19.41
2022-08-16T03:43:20.518Z,19.37
2022-08-16T03:44:43.568Z,19.44
2022-08-16T03:45:15.321Z,19.31
2022-08-16T03:46:45.153Z,19.31
2022-08-16T03:47:18.838Z,19.33
2022-08-16T03:48:18.296Z,19.33
2022-08-16T03:49:15.020Z,19.21
2022-08-16T03:50:25.782Z,19.30
2022-08-16T03:51:14.875Z,19.29
2022-08-16T03:52:14.800Z,19.27
2022-08-16T03:53:14.725Z,19.27
2022-08-16T03:54:14.645Z,19.31
2022-08-16T03:55:14.809Z,19.29
2022-08-16T03:56:19.912Z,19.33
2022-08-16T03:57:15.777Z,19.30
2022-08-16T03:58:14.343Z,19.29
2022-08-16T03:59:14.270Z,19.33
2022-08-16T04:00:20.759Z,19.33
2022-08-16T04:01:14.170Z,19.33
2022-08-16T04:02:22.407Z,19.30
2022-08-16T04:03:13.970Z,19.31
2022-08-16T04:04:17.656Z,19.30
2022-08-16T04:05:13.813Z,19.24
2022-08-16T04:06:13.744Z,19.27
2022-08-16T04:07:13.665Z,19.31
2022-08-16T04:08:22.788Z,19.22
2022-08-16T04:09:13.516Z,19.29
2022-08-16T04:10:36.774Z,19.31
2022-08-16T04:11:16.453Z,19.27
2022-08-16T04:12:54.600Z,19.33
2022-08-16T04:13:20.171Z,19.27
2022-08-16T04:14:32.690Z,19.24
2022-08-16T04:15:13.572Z,19.30
2022-08-16T04:16:27.544Z,19.21
2022-08-16T04:17:12.914Z,19.16
2022-08-16T04:18:12.841Z,19.21
2022-08-16T04:19:12.765Z,19.15
2022-08-16T04:20:31.358Z,18.96
2022-08-16T04:21:12.612Z,19.09
2022-08-16T04:22:12.542Z,19.09
2022-08-16T04:23:12.464Z,18.95
2022-08-16T04:24:12.381Z,19.07
2022-08-16T04:25:12.311Z,19.08
2022-08-16T04:26:16.946Z,19.16
2022-08-16T04:27:12.160Z,19.07
2022-08-16T04:28:52.123Z,19.09
2022-08-16T04:29:21.752Z,19.19
2022-08-16T04:30:11.931Z,19.19
2022-08-16T04:31:11.858Z,19.19
2022-08-16T04:32:11.784Z,19.14
2022-08-16T04:33:11.706Z,19.12
2022-08-16T04:34:11.630Z,19.00
2022-08-16T04:35:16.131Z,19.04
2022-08-16T04:36:11.485Z,19.09
2022-08-16T04:37:11.410Z,19.18
2022-08-16T04:38:21.158Z,19.08
2022-08-16T04:39:11.257Z,19.09
2022-08-16T04:40:11.269Z,19.09
2022-08-16T04:41:11.104Z,19.08
2022-08-16T04:42:11.658Z,19.04
2022-08-16T04:43:10.952Z,19.07
2022-08-16T04:44:32.372Z,19.08
2022-08-16T04:45:10.802Z,19.09
2022-08-16T04:46:33.224Z,19.02
2022-08-16T04:47:21.707Z,19.00
2022-08-16T04:48:10.581Z,19.07
2022-08-16T04:49:10.498Z,19.14
2022-08-16T04:50:10.425Z,19.09
2022-08-16T04:51:11.922Z,19.12
2022-08-16T04:52:35.194Z,19.15
2022-08-16T04:53:10.198Z,19.07
2022-08-16T04:54:10.125Z,19.22
2022-08-16T04:55:11.773Z,19.21
2022-08-16T04:56:11.632Z,19.16
2022-08-16T04:57:09.903Z,19.26
2022-08-16T04:58:44.252Z,19.16
2022-08-16T04:59:09.748Z,19.26
2022-08-16T05:00:30.539Z,19.33
2022-08-16T05:01:09.594Z,19.29
2022-08-16T05:02:41.487Z,19.24
2022-08-16T05:03:09.505Z,19.29
2022-08-16T05:04:19.684Z,19.37
2022-08-16T05:05:09.291Z,19.27
2022-08-16T05:06:09.272Z,19.29
2022-08-16T05:07:13.275Z,19.30
2022-08-16T05:08:28.756Z,19.34
2022-08-16T05:09:08.987Z,19.33
2022-08-16T05:10:19.790Z,19.36
2022-08-16T05:11:08.919Z,19.44
2022-08-16T05:12:11.074Z,19.39
2022-08-16T05:13:08.882Z,19.40
2022-08-16T05:14:09.107Z,19.54
2022-08-16T05:15:08.825Z,19.56
2022-08-16T05:16:08.466Z,19.56
2022-08-16T05:17:08.388Z,19.55
2022-08-16T05:18:08.320Z,19.51
2022-08-16T05:19:11.701Z,19.56
2022-08-16T05:20:38.730Z,19.58
2022-08-16T05:21:09.618Z,19.63
2022-08-16T05:22:08.012Z,19.64
2022-08-16T05:23:07.939Z,19.58
2022-08-16T05:24:09.143Z,19.62
2022-08-16T05:25:08.681Z,19.62
2022-08-16T05:26:19.631Z,19.66
2022-08-16T05:27:11.611Z,19.59
2022-08-16T05:28:07.565Z,19.69
2022-08-16T05:29:07.490Z,19.63
2022-08-16T05:30:35.224Z,19.63
2022-08-16T05:31:07.333Z,19.73
2022-08-16T05:32:32.403Z,19.70
2022-08-16T05:33:09.010Z,19.77
2022-08-16T05:34:19.455Z,19.82
2022-08-16T05:35:07.035Z,19.82
2022-08-16T05:36:14.237Z,19.84
2022-08-16T05:37:06.885Z,19.77
2022-08-16T05:38:32.717Z,19.88
2022-08-16T05:39:06.734Z,19.86
2022-08-16T05:40:06.699Z,19.89
2022-08-16T05:41:06.584Z,19.95
2022-08-16T05:42:06.504Z,19.94
2022-08-16T05:43:06.430Z,19.96
2022-08-16T05:44:23.661Z,19.89
2022-08-16T05:45:06.925Z,20.00
2022-08-16T05:46:06.210Z,20.00
2022-08-16T05:47:06.129Z,20.09
2022-08-16T05:48:06.060Z,20.07
2022-08-16T05:49:09.491Z,20.09
2022-08-16T05:50:05.906Z,20.11
2022-08-16T05:51:05.830Z,20.16
2022-08-16T05:52:05.753Z,20.22
2022-08-16T05:53:05.678Z,20.25
2022-08-16T05:54:05.601Z,20.22
2022-08-16T05:55:05.528Z,20.29
2022-08-16T05:56:05.450Z,20.31
2022-08-16T05:57:05.377Z,20.37
2022-08-16T05:58:05.305Z,20.29
2022-08-16T05:59:06.296Z,20.24
2022-08-16T06:00:09.145Z,20.31
2022-08-16T06:01:05.121Z,20.36
2022-08-16T06:02:06.156Z,20.37
2022-08-16T06:03:04.927Z,20.37
2022-08-16T06:04:04.854Z,20.39
2022-08-16T06:05:04.775Z,20.37
2022-08-16T06:06:04.707Z,20.40
2022-08-16T06:07:06.935Z,20.47
2022-08-16T06:08:04.555Z,20.50
2022-08-16T06:09:04.482Z,20.52
2022-08-16T06:10:04.401Z,20.48
2022-08-16T06:11:10.189Z,20.59
2022-08-16T06:12:04.253Z,20.55
2022-08-16T06:13:04.179Z,20.59
2022-08-16T06:14:04.113Z,20.63
2022-08-16T06:15:07.589Z,20.59
2022-08-16T06:16:03.956Z,20.67
2022-08-16T06:17:05.307Z,20.67
2022-08-16T06:18:03.804Z,20.74
2022-08-16T06:19:04.985Z,20.67
2022-08-16T06:20:03.652Z,20.74
2022-08-16T06:21:03.584Z,20.75
2022-08-16T06:22:03.504Z,20.74
2022-08-16T06:23:11.803Z,20.82
2022-08-16T06:24:03.360Z,20.85
2022-08-16T06:25:03.286Z,20.77
2022-08-16T06:26:03.207Z,20.85
2022-08-16T06:27:03.129Z,20.80
2022-08-16T06:28:03.055Z,20.90
2022-08-16T06:29:02.981Z,20.84
2022-08-16T06:30:03.247Z,20.95
2022-08-16T06:31:02.834Z,20.97
2022-08-16T06:32:02.757Z,20.99
2022-08-16T06:33:02.688Z,20.93
2022-08-16T06:34:02.608Z,21.05
2022-08-16T06:35:03.056Z,21.05
2022-08-16T06:36:02.461Z,21.03
2022-08-16T06:37:02.384Z,21.11
2022-08-16T06:38:02.310Z,21.06
2022-08-16T06:39:02.234Z,21.11
2022-08-16T06:40:02.198Z,21.15
2022-08-16T06:41:02.083Z,21.17
2022-08-16T06:42:02.012Z,21.15
2022-08-16T06:43:02.093Z,21.24
2022-08-16T06:44:01.868Z,21.24
2022-08-16T06:45:01.792Z,21.27
2022-08-16T06:46:03.641Z,21.22
2022-08-16T06:47:02.819Z,21.25
2022-08-16T06:48:01.562Z,21.32
2022-08-16T06:49:01.626Z,21.37
2022-08-16T06:50:01.419Z,21.40
2022-08-16T06:51:01.344Z,21.48
2022-08-16T06:52:03.053Z,21.40
2022-08-16T06:53:19.762Z,21.50
2022-08-16T06:54:01.120Z,21.45
2022-08-16T06:55:01.048Z,21.48
2022-08-16T06:56:00.974Z,21.50
2022-08-16T06:57:00.895Z,21.50
2022-08-16T06:58:00.818Z,21.51
2022-08-16T06:59:00.770Z,21.58
2022-08-16T07:00:02.133Z,21.52
2022-08-16T07:01:00.701Z,21.60
2022-08-16T07:02:00.537Z,21.61
2022-08-16T07:03:00.550Z,21.51
2022-08-16T07:04:00.376Z,21.57
2022-08-16T07:05:00.306Z,21.66
2022-08-16T07:06:00.226Z,21.57
2022-08-16T07:07:00.154Z,21.61
2022-08-16T07:08:00.083Z,21.58
2022-08-16T07:08:59.998Z,21.60
2022-08-16T07:09:59.928Z,21.70
2022-08-16T07:10:59.853Z,21.72
2022-08-16T07:12:03.214Z,21.69
2022-08-16T07:13:04.048Z,21.75
2022-08-16T07:14:24.349Z,21.79
2022-08-16T07:15:00.723Z,21.82
2022-08-16T07:15:59.486Z,21.83
2022-08-16T07:16:59.561Z,21.83
2022-08-16T07:17:59.334Z,21.82
2022-08-16T07:19:01.987Z,21.85
2022-08-16T07:20:03.991Z,21.91
2022-08-16T07:21:02.071Z,22.00
2022-08-16T07:21:59.889Z,21.95
2022-08-16T07:22:59.482Z,21.93
2022-08-16T07:24:06.068Z,22.00
2022-08-16T07:24:58.809Z,22.11
2022-08-16T07:25:58.736Z,22.10
2022-08-16T07:26:58.669Z,22.08
2022-08-16T07:27:58.590Z,22.11
2022-08-16T07:28:58.516Z,22.02
2022-08-16T07:29:58.442Z,22.15
2022-08-16T07:30:58.366Z,22.17
2022-08-16T07:31:58.292Z,22.17
2022-08-16T07:32:58.221Z,22.18
2022-08-16T07:33:58.142Z,22.18
2022-08-16T07:34:58.069Z,22.20
2022-08-16T07:35:57.991Z,22.18
2022-08-16T07:36:58.899Z,22.14
2022-08-16T07:37:57.848Z,22.17
2022-08-16T07:38:57.770Z,22.26
2022-08-16T07:39:57.767Z,22.32
2022-08-16T07:41:00.272Z,22.30
2022-08-16T07:41:57.552Z,22.29
2022-08-16T07:42:57.483Z,22.33
2022-08-16T07:43:57.404Z,22.33
2022-08-16T07:44:57.329Z,22.43
2022-08-16T07:45:57.258Z,22.43
2022-08-16T07:46:57.185Z,22.41
2022-08-16T07:47:57.112Z,22.45
2022-08-16T07:49:02.321Z,22.48
2022-08-16T07:49:58.207Z,22.47
2022-08-16T07:50:59.572Z,22.50
2022-08-16T07:51:56.814Z,22.47
2022-08-16T07:52:56.736Z,22.60
2022-08-16T07:54:02.425Z,22.59
2022-08-16T07:54:56.599Z,22.63
2022-08-16T07:55:56.517Z,22.63
2022-08-16T07:56:56.445Z,22.66
2022-08-16T07:58:01.185Z,22.70
2022-08-16T07:58:57.896Z,22.70
2022-08-16T07:59:57.205Z,22.70
2022-08-16T08:00:56.233Z,22.75
2022-08-16T08:01:56.071Z,22.80
2022-08-16T08:02:57.019Z,22.80
2022-08-16T08:03:55.924Z,22.83
2022-08-16T08:04:55.859Z,22.84
2022-08-16T08:05:55.778Z,22.90
2022-08-16T08:06:55.704Z,22.84
2022-08-16T08:07:57.659Z,22.93
2022-08-16T08:08:57.530Z,22.94
2022-08-16T08:09:55.482Z,22.91
2022-08-16T08:10:55.409Z,22.96
2022-08-16T08:12:00.777Z,22.93
2022-08-16T08:12:55.264Z,23.00
2022-08-16T08:13:55.192Z,22.98
2022-08-16T08:14:55.122Z,23.00
2022-08-16T08:15:55.041Z,23.08
2022-08-16T08:16:54.971Z,23.05
2022-08-16T08:17:54.894Z,23.02
2022-08-16T08:18:56.198Z,23.10
2022-08-16T08:19:54.745Z,23.00
2022-08-16T08:20:59.465Z,23.10
2022-08-16T08:22:00.151Z,23.13
2022-08-16T08:23:00.715Z,23.17
2022-08-16T08:23:54.449Z,23.17
2022-08-16T08:24:58.968Z,23.20
2022-08-16T08:25:55.853Z,23.27
2022-08-16T08:26:54.271Z,23.37
2022-08-16T08:27:57.667Z,23.41
2022-08-16T08:28:54.079Z,23.31
2022-08-16T08:30:51.674Z,23.36
2022-08-16T08:31:01.230Z,23.28
2022-08-16T08:31:53.969Z,23.40
2022-08-16T08:33:00.038Z,23.36
2022-08-16T08:33:53.719Z,23.44
2022-08-16T08:34:53.642Z,23.40
2022-08-16T08:35:53.568Z,23.48
2022-08-16T08:36:54.483Z,23.51
2022-08-16T08:37:55.060Z,23.46
2022-08-16T08:38:53.345Z,23.50
2022-08-16T08:39:55.401Z,23.50
2022-08-16T08:40:53.203Z,23.48
2022-08-16T08:41:53.133Z,23.51
2022-08-16T08:42:57.394Z,23.59
2022-08-16T08:43:53.022Z,23.63
2022-08-16T08:44:52.907Z,23.63
2022-08-16T08:45:53.574Z,23.68
2022-08-16T08:47:00.228Z,23.69
2022-08-16T08:47:58.481Z,23.74
2022-08-16T08:48:59.685Z,23.78
2022-08-16T08:49:55.720Z,23.77
2022-08-16T08:50:52.493Z,23.78
2022-08-16T08:51:52.392Z,23.81
2022-08-16T08:52:52.796Z,23.84
2022-08-16T08:53:58.065Z,23.81
2022-08-16T08:54:52.174Z,23.88
2022-08-16T08:55:59.111Z,23.91
2022-08-16T08:56:52.319Z,23.86
2022-08-16T08:57:51.952Z,23.87
2022-08-16T08:58:53.676Z,23.92
2022-08-16T08:59:51.812Z,24.01
2022-08-16T09:00:51.938Z,24.01
2022-08-16T09:01:57.263Z,24.06
2022-08-16T09:02:52.246Z,24.08
2022-08-16T09:03:51.565Z,24.10
2022-08-16T09:04:51.446Z,24.21
2022-08-16T09:05:51.867Z,24.20
2022-08-16T09:06:51.303Z,24.21
2022-08-16T09:08:00.522Z,24.20
2022-08-16T09:08:51.156Z,24.16
2022-08-16T09:09:51.080Z,24.11
2022-08-16T09:10:58.717Z,24.20
2022-08-16T09:11:53.408Z,24.30
2022-08-16T09:12:51.153Z,24.23
2022-08-16T09:13:51.155Z,24.29
2022-08-16T09:14:51.333Z,24.30
2022-08-16T09:15:50.639Z,24.35
2022-08-16T09:17:01.066Z,24.38
2022-08-16T09:17:52.268Z,24.48
2022-08-16T09:18:54.826Z,24.48
2022-08-16T09:19:53.739Z,24.53
2022-08-16T09:20:59.740Z,24.57
2022-08-16T09:21:56.059Z,24.60
2022-08-16T09:22:52.427Z,24.73
2022-08-16T09:23:50.062Z,24.69
2022-08-16T09:24:53.401Z,24.69
2022-08-16T09:25:49.905Z,24.65
2022-08-16T09:26:52.555Z,24.68
2022-08-16T09:27:57.951Z,24.77
2022-08-16T09:29:15.697Z,24.88
2022-08-16T09:29:59.924Z,24.86
2022-08-16T09:30:49.550Z,24.88
2022-08-16T09:31:53.547Z,24.86
2022-08-16T09:32:49.539Z,24.92
2022-08-16T09:33:52.163Z,24.88
2022-08-16T09:34:49.248Z,24.91
2022-08-16T09:35:53.655Z,24.95
2022-08-16T09:36:49.102Z,25.08
2022-08-16T09:38:00.555Z,25.07
2022-08-16T09:38:48.957Z,25.22
2022-08-16T09:39:50.397Z,25.17
2022-08-16T09:40:48.865Z,25.26
2022-08-16T09:41:53.174Z,25.31
2022-08-16T09:42:56.489Z,25.36
2022-08-16T09:43:58.807Z,25.41
2022-08-16T09:45:09.212Z,25.47
2022-08-16T09:45:48.452Z,25.51
2022-08-16T09:46:49.786Z,25.59
2022-08-16T09:47:57.065Z,25.70
2022-08-16T09:48:51.684Z,25.63
2022-08-16T09:49:50.961Z,25.65
2022-08-16T09:50:48.088Z,25.72
2022-08-16T09:51:48.013Z,25.65
2022-08-16T09:52:48.295Z,25.65
2022-08-16T09:53:54.004Z,25.59
2022-08-16T09:54:47.800Z,25.63
2022-08-16T09:55:49.280Z,25.63
2022-08-16T09:56:52.031Z,25.68
2022-08-16T09:57:52.963Z,25.68
2022-08-16T09:59:03.917Z,25.69
2022-08-16T09:59:47.434Z,25.73
2022-08-16T10:00:47.366Z,25.68
2022-08-16T10:01:47.345Z,25.73
2022-08-16T10:02:48.080Z,25.72
2022-08-16T10:04:01.785Z,25.73
2022-08-16T10:04:52.993Z,25.85
2022-08-16T10:05:47.004Z,25.77
2022-08-16T10:06:46.954Z,25.78
2022-08-16T10:07:46.855Z,25.77
2022-08-16T10:08:51.225Z,25.73
2022-08-16T10:09:55.549Z,25.81
2022-08-16T10:10:46.645Z,25.75
2022-08-16T10:11:50.236Z,25.75
2022-08-16T10:12:46.498Z,25.70
2022-08-16T10:13:46.425Z,25.80
2022-08-16T10:14:46.432Z,25.83
2022-08-16T10:15:55.449Z,25.78
2022-08-16T10:16:48.861Z,25.81
2022-08-16T10:18:00.151Z,25.93
2022-08-16T10:18:46.069Z,25.88
2022-08-16T10:19:45.992Z,25.85
2022-08-16T10:20:45.923Z,25.93
2022-08-16T10:21:45.847Z,25.93
2022-08-16T10:22:45.774Z,25.99
2022-08-16T10:23:45.700Z,26.09
2022-08-16T10:24:59.494Z,26.06
2022-08-16T10:27:19.015Z,26.09
2022-08-16T10:27:20.711Z,26.18
2022-08-16T10:27:56.989Z,26.16
2022-08-16T10:28:45.465Z,26.22
2022-08-16T10:29:59.883Z,26.25
2022-08-16T10:30:45.202Z,26.31
2022-08-16T10:31:46.509Z,26.31
2022-08-16T10:32:45.055Z,26.29
2022-08-16T10:33:44.987Z,26.43
2022-08-16T10:34:44.985Z,26.41
2022-08-16T10:35:46.552Z,26.55
2022-08-16T10:36:44.769Z,26.56
2022-08-16T10:37:44.695Z,26.62
2022-08-16T10:38:44.626Z,26.58
2022-08-16T10:39:44.612Z,26.70
2022-08-16T10:40:45.655Z,26.83
2022-08-16T10:41:45.208Z,26.84
2022-08-16T10:42:44.422Z,26.84
2022-08-16T10:43:44.267Z,27.03
2022-08-16T10:44:53.657Z,27.07
2022-08-16T10:45:44.126Z,27.05
2022-08-16T10:46:44.050Z,27.03
2022-08-16T10:47:43.981Z,27.03
2022-08-16T10:48:46.934Z,27.02
2022-08-16T10:49:43.839Z,27.07
2022-08-16T10:50:43.766Z,27.15
2022-08-16T10:52:02.665Z,27.14
2022-08-16T10:52:43.621Z,27.15
2022-08-16T10:53:43.553Z,27.20
2022-08-16T10:54:59.309Z,27.32
2022-08-16T10:55:44.770Z,27.27
2022-08-16T10:56:51.534Z,27.35
2022-08-16T10:57:43.273Z,27.33
2022-08-16T10:58:43.195Z,27.26
2022-08-16T10:59:54.499Z,27.29
2022-08-16T11:00:43.055Z,27.42
2022-08-16T11:01:44.134Z,27.54
2022-08-16T11:03:00.552Z,27.55
2022-08-16T11:03:45.665Z,27.58
2022-08-16T11:07:06.670Z,27.80
2022-08-16T11:07:43.119Z,27.82
2022-08-16T11:08:45.614Z,27.87
2022-08-16T11:09:44.201Z,27.90
2022-08-16T11:11:05.032Z,28.05
2022-08-16T11:12:42.198Z,28.14
2022-08-16T11:13:59.075Z,28.29
2022-08-16T11:15:11.395Z,28.35
2022-08-16T11:15:43.155Z,28.41
2022-08-16T11:17:11.468Z,28.37
2022-08-16T11:17:44.755Z,28.48
2022-08-16T11:18:48.615Z,28.48
2022-08-16T11:20:48.689Z,28.63
2022-08-16T11:22:48.811Z,28.75
2022-08-16T11:23:51.451Z,28.82
2022-08-16T11:24:44.665Z,28.84
2022-08-16T11:26:41.217Z,29.07
2022-08-16T11:27:41.142Z,29.13
2022-08-16T11:29:41.000Z,28.91
2022-08-16T11:30:40.925Z,28.79
2022-08-16T11:31:40.860Z,28.70
2022-08-16T11:32:40.789Z,28.60
2022-08-16T11:33:56.081Z,28.66
2022-08-16T11:35:05.949Z,28.59
2022-08-16T11:35:44.243Z,28.52
2022-08-16T11:36:59.497Z,28.57
2022-08-16T11:38:55.323Z,28.56
2022-08-16T11:39:40.336Z,28.60
2022-08-16T11:40:40.792Z,28.66
2022-08-16T11:41:43.626Z,28.81
2022-08-16T11:42:40.090Z,29.01
2022-08-16T11:43:40.012Z,28.97
2022-08-16T11:44:56.243Z,29.16
2022-08-16T11:45:42.456Z,29.29
2022-08-16T11:46:45.181Z,29.45
2022-08-16T11:47:39.736Z,29.59
2022-08-16T11:48:39.669Z,29.66
2022-08-16T11:49:47.264Z,29.79
2022-08-16T11:51:44.176Z,29.79
2022-08-16T11:52:46.436Z,29.72
2022-08-16T11:54:48.188Z,29.57
2022-08-16T11:55:50.491Z,29.56
2022-08-16T11:56:52.882Z,29.50
2022-08-16T11:57:48.089Z,29.47
2022-08-16T11:58:51.800Z,29.49
2022-08-16T11:59:47.821Z,29.56
2022-08-16T12:00:51.609Z,29.69
2022-08-16T12:01:59.389Z,29.73
2022-08-16T12:02:48.013Z,29.87
2022-08-16T12:03:47.577Z,30.02
2022-08-16T12:04:51.797Z,30.13
2022-08-16T12:05:52.102Z,30.10
2022-08-16T12:06:47.332Z,30.27
2022-08-16T12:07:47.391Z,30.34
2022-08-16T12:08:47.192Z,30.43
2022-08-16T12:09:47.126Z,30.40
2022-08-16T12:10:47.059Z,30.32
2022-08-16T12:11:47.077Z,30.32
2022-08-16T12:12:46.919Z,30.53
2022-08-16T12:13:46.847Z,30.46
2022-08-16T12:14:46.779Z,30.53
2022-08-16T12:15:46.709Z,30.37
2022-08-16T12:16:48.872Z,30.40
2022-08-16T12:17:46.732Z,30.21
2022-08-16T12:19:46.433Z,30.12
2022-08-16T12:20:46.366Z,30.15
2022-08-16T12:21:58.092Z,30.18
2022-08-16T12:22:46.228Z,30.28
2022-08-16T12:23:46.153Z,30.18
2022-08-16T12:24:50.973Z,30.05
2022-08-16T12:25:46.017Z,30.05
2022-08-16T12:26:45.957Z,30.15
2022-08-16T12:27:45.881Z,30.27
2022-08-16T12:28:54.965Z,30.48
2022-08-16T12:29:45.742Z,30.77
2022-08-16T12:30:45.674Z,30.97
2022-08-16T12:32:00.435Z,31.10
2022-08-16T12:32:45.532Z,31.00
2022-08-16T12:33:45.460Z,30.83
2022-08-16T12:34:50.402Z,30.70
2022-08-16T12:35:45.327Z,30.68
2022-08-16T12:36:45.255Z,30.68
2022-08-16T12:37:46.071Z,30.55
2022-08-16T12:38:48.293Z,30.63
2022-08-16T12:39:50.834Z,30.59
2022-08-16T12:40:44.977Z,30.83
2022-08-16T12:41:45.196Z,31.55
2022-08-16T12:42:52.928Z,32.33
2022-08-16T12:43:45.119Z,32.71
2022-08-16T12:44:44.704Z,33.36
2022-08-16T12:45:44.634Z,34.01
2022-08-16T12:46:44.567Z,34.55
2022-08-16T12:47:44.498Z,35.39
2022-08-16T12:48:44.432Z,36.18
2022-08-16T12:49:44.365Z,37.03
2022-08-16T12:50:49.262Z,36.76
2022-08-16T12:51:59.291Z,36.09
2022-08-16T12:52:44.508Z,35.63
2022-08-16T12:53:44.106Z,35.74
2022-08-16T12:54:44.029Z,35.41
2022-08-16T12:55:43.983Z,35.04
2022-08-16T12:56:43.896Z,34.62
2022-08-16T12:57:43.828Z,34.29
2022-08-16T12:58:47.516Z,33.87
2022-08-16T12:59:43.694Z,33.59
2022-08-16T13:00:43.652Z,33.36
2022-08-16T13:01:43.564Z,33.19
2022-08-16T13:02:43.525Z,33.09